createdAt,value
2018-06-13T00:01:40.837Z,4.00
2018-06-13T00:04:10.070Z,4.27
2018-06-13T00:06:39.274Z,3.70
2018-06-13T00:09:09.082Z,4.37
2018-06-13T00:11:38.251Z,3.77
2018-06-13T00:14:07.480Z,4.20
2018-06-13T00:16:36.735Z,3.87
2018-06-13T00:19:06.018Z,3.90
2018-06-13T00:21:35.192Z,4.30
2018-06-13T00:24:04.424Z,4.17
2018-06-13T00:26:33.670Z,4.53
2018-06-13T00:29:02.858Z,3.93
2018-06-13T00:31:32.073Z,4.43
2018-06-13T00:34:01.375Z,3.70
2018-06-13T00:36:30.644Z,3.33
2018-06-13T00:38:59.984Z,3.67
2018-06-13T00:41:29.387Z,3.20
2018-06-13T00:43:58.570Z,3.90
2018-06-13T00:46:27.762Z,4.27
2018-06-13T00:48:56.957Z,3.93
2018-06-13T00:51:26.154Z,3.60
2018-06-13T00:53:55.575Z,3.57
2018-06-13T00:56:31.255Z,3.50
2018-06-13T00:59:00.483Z,3.57
2018-06-13T01:01:29.646Z,3.43
2018-06-13T01:03:58.950Z,3.57
2018-06-13T01:06:28.196Z,3.30
2018-06-13T01:08:57.404Z,3.60
2018-06-13T01:11:26.645Z,3.40
2018-06-13T01:13:55.845Z,3.77
2018-06-13T01:16:25.130Z,3.63
2018-06-13T01:18:54.396Z,3.83
2018-06-13T01:21:23.614Z,3.30
2018-06-13T01:23:52.862Z,3.73
2018-06-13T01:26:22.079Z,4.10
2018-06-13T01:28:51.304Z,3.40
2018-06-13T01:31:20.530Z,3.03
2018-06-13T01:33:49.761Z,3.80
2018-06-13T01:36:19.451Z,3.07
2018-06-13T01:38:48.685Z,3.50
2018-06-13T01:41:20.608Z,3.73
2018-06-13T01:43:50.455Z,3.93
2018-06-13T01:46:19.804Z,3.10
2018-06-13T01:48:49.028Z,3.13
2018-06-13T01:51:18.210Z,3.40
2018-06-13T01:53:47.382Z,2.97
2018-06-13T01:56:16.532Z,3.77
2018-06-13T01:58:45.765Z,3.70
2018-06-13T02:01:14.927Z,3.70
2018-06-13T02:03:44.163Z,3.80
2018-06-13T02:06:13.336Z,3.40
2018-06-13T02:08:42.532Z,3.27
2018-06-13T02:11:11.777Z,3.00
2018-06-13T02:13:40.958Z,3.20
2018-06-13T02:16:11.000Z,2.57
2018-06-13T02:18:40.249Z,3.53
2018-06-13T02:21:10.568Z,3.40
2018-06-13T02:23:39.769Z,3.67
2018-06-13T02:26:08.975Z,3.00
2018-06-13T02:28:38.284Z,3.43
2018-06-13T02:31:07.549Z,2.73
2018-06-13T02:33:36.760Z,3.13
2018-06-13T02:36:06.027Z,3.90
2018-06-13T02:38:35.300Z,3.07
2018-06-13T02:41:04.516Z,2.97
2018-06-13T02:43:33.754Z,2.80
2018-06-13T02:46:02.933Z,3.63
2018-06-13T02:48:32.125Z,3.20
2018-06-13T02:51:01.375Z,3.67
2018-06-13T02:53:30.601Z,3.33
2018-06-13T02:55:59.879Z,3.00
2018-06-13T02:58:29.080Z,2.70
2018-06-13T03:00:58.324Z,3.10
2018-06-13T03:03:27.512Z,3.30
2018-06-13T03:05:56.740Z,3.57
2018-06-13T03:08:26.059Z,3.53
2018-06-13T03:10:55.275Z,3.50
2018-06-13T03:13:24.424Z,3.10
2018-06-13T03:15:53.766Z,3.40
2018-06-13T03:18:23.038Z,2.93
2018-06-13T03:20:52.262Z,3.00
2018-06-13T03:23:21.464Z,3.37
2018-06-13T03:25:50.668Z,3.43
2018-06-13T03:28:19.901Z,4.40
2018-06-13T03:30:49.086Z,3.70
2018-06-13T03:33:18.299Z,4.13
2018-06-13T03:35:47.529Z,3.53
2018-06-13T03:38:16.810Z,3.70
2018-06-13T03:40:45.996Z,3.23
2018-06-13T03:43:15.173Z,3.33
2018-06-13T03:45:44.373Z,3.67
2018-06-13T03:48:13.549Z,3.53
2018-06-13T03:50:42.769Z,4.63
2018-06-13T03:53:11.918Z,4.50
2018-06-13T03:55:41.205Z,3.77
2018-06-13T03:58:10.372Z,3.37
2018-06-13T04:00:39.573Z,3.70
2018-06-13T04:03:08.834Z,4.50
2018-06-13T04:05:38.081Z,3.97
2018-06-13T04:08:07.337Z,3.47
2018-06-13T04:10:36.549Z,3.60
2018-06-13T04:13:05.767Z,4.27
2018-06-13T04:15:34.960Z,3.13
2018-06-13T04:18:05.731Z,4.23
2018-06-13T04:20:34.919Z,3.83
2018-06-13T04:23:04.150Z,3.70
2018-06-13T04:25:33.323Z,4.23
2018-06-13T04:28:02.473Z,4.30
2018-06-13T04:30:31.662Z,4.57
2018-06-13T04:33:00.970Z,3.97
2018-06-13T04:35:30.201Z,4.40
2018-06-13T04:37:59.397Z,4.40
2018-06-13T04:40:28.638Z,4.00
2018-06-13T04:42:57.808Z,4.73
2018-06-13T04:45:27.088Z,3.80
2018-06-13T04:47:56.253Z,5.40
2018-06-13T04:50:25.502Z,5.20
2018-06-13T04:52:54.996Z,5.00
2018-06-13T04:55:24.218Z,4.47
2018-06-13T04:57:53.476Z,5.00
2018-06-13T05:00:22.657Z,4.53
2018-06-13T05:02:52.299Z,4.30
2018-06-13T05:05:21.608Z,4.57
2018-06-13T05:07:50.877Z,6.03
2018-06-13T05:10:20.097Z,5.90
2018-06-13T05:12:49.383Z,5.07
2018-06-13T05:15:18.572Z,5.27
2018-06-13T05:17:47.977Z,4.77
2018-06-13T05:20:17.137Z,5.20
2018-06-13T05:22:46.401Z,5.23
2018-06-13T05:25:15.723Z,4.23
2018-06-13T05:27:44.935Z,4.53
2018-06-13T05:30:14.157Z,4.77
2018-06-13T05:32:43.382Z,4.10
2018-06-13T05:35:12.575Z,3.60
2018-06-13T05:37:41.899Z,3.80
2018-06-13T05:40:11.080Z,5.00
2018-06-13T05:42:40.645Z,6.00
2018-06-13T05:45:09.867Z,4.93
2018-06-13T05:47:39.134Z,5.00
2018-06-13T05:50:08.375Z,4.40
2018-06-13T05:52:37.596Z,4.57
2018-06-13T05:55:06.808Z,4.60
2018-06-13T05:57:37.246Z,6.37
2018-06-13T06:00:06.558Z,4.90
2018-06-13T06:02:35.902Z,5.10
2018-06-13T06:05:05.243Z,4.77
2018-06-13T06:07:34.447Z,4.97
2018-06-13T06:10:03.717Z,5.40
2018-06-13T06:12:32.977Z,4.80
2018-06-13T06:15:02.177Z,4.57
2018-06-13T06:17:31.574Z,4.83
2018-06-13T06:20:00.932Z,4.87
2018-06-13T06:22:30.147Z,4.50
2018-06-13T06:24:59.327Z,4.40
2018-06-13T06:27:28.581Z,4.03
2018-06-13T06:29:57.809Z,3.83
2018-06-13T06:32:26.977Z,4.27
2018-06-13T06:34:56.184Z,3.80
2018-06-13T06:37:25.389Z,4.20
2018-06-13T06:39:54.707Z,3.83
2018-06-13T06:42:23.920Z,5.60
2018-06-13T06:44:53.096Z,3.77
2018-06-13T06:47:22.292Z,3.60
2018-06-13T06:49:51.747Z,3.77
2018-06-13T06:52:20.919Z,2.43
2018-06-13T06:54:50.130Z,3.93
2018-06-13T06:57:19.464Z,2.47
2018-06-13T06:59:48.675Z,2.57
2018-06-13T07:02:17.869Z,2.83
2018-06-13T07:04:47.108Z,2.73
2018-06-13T07:07:16.415Z,2.73
2018-06-13T07:09:45.692Z,3.20
2018-06-13T07:12:14.852Z,3.27
2018-06-13T07:14:44.080Z,3.67
2018-06-13T07:17:13.306Z,4.17
2018-06-13T07:19:42.560Z,5.33
2018-06-13T07:22:11.846Z,3.60
2018-06-13T07:24:41.069Z,4.03
2018-06-13T07:27:10.347Z,3.60
2018-06-13T07:29:39.623Z,3.23
2018-06-13T07:32:08.844Z,2.97
2018-06-13T07:34:38.036Z,2.50
2018-06-13T07:37:07.240Z,2.70
2018-06-13T07:39:36.452Z,2.63
2018-06-13T07:42:05.941Z,2.60
2018-06-13T07:44:35.144Z,2.20
2018-06-13T07:47:04.366Z,2.57
2018-06-13T07:49:33.640Z,2.30
2018-06-13T07:52:02.887Z,3.00
2018-06-13T07:54:32.151Z,2.63
2018-06-13T07:57:01.385Z,2.57
2018-06-13T07:59:30.639Z,2.83
2018-06-13T08:01:59.878Z,2.73
2018-06-13T08:04:29.119Z,3.27
2018-06-13T08:06:58.371Z,3.87
2018-06-13T08:09:27.624Z,2.47
2018-06-13T08:11:56.898Z,3.10
2018-06-13T08:14:26.132Z,2.40
2018-06-13T08:16:55.406Z,1.70
2018-06-13T08:19:24.593Z,1.57
2018-06-13T08:21:54.369Z,1.77
2018-06-13T08:24:23.568Z,1.53
2018-06-13T08:26:55.720Z,1.60
2018-06-13T08:29:24.942Z,1.60
2018-06-13T08:31:54.192Z,1.33
2018-06-13T08:34:24.058Z,1.50
2018-06-13T08:36:53.745Z,1.50
2018-06-13T08:39:22.953Z,1.53
2018-06-13T08:41:52.315Z,1.20
2018-06-13T08:44:21.528Z,1.80
2018-06-13T08:46:50.839Z,1.70
2018-06-13T08:49:20.101Z,1.53
2018-06-13T08:51:50.060Z,2.10
2018-06-13T08:54:19.277Z,1.20
2018-06-13T08:56:48.573Z,1.90
2018-06-13T08:59:17.771Z,1.67
2018-06-13T09:01:47.030Z,2.43
2018-06-13T09:04:16.272Z,2.00
2018-06-13T09:06:45.481Z,1.87
2018-06-13T09:09:14.799Z,2.27
2018-06-13T09:11:44.039Z,1.90
2018-06-13T09:14:13.203Z,1.70
2018-06-13T09:16:42.444Z,2.00
2018-06-13T09:19:11.668Z,2.10
2018-06-13T09:21:40.880Z,1.70
2018-06-13T09:24:10.083Z,1.30
2018-06-13T09:26:39.293Z,1.90
2018-06-13T09:29:08.885Z,1.57
2018-06-13T09:31:38.082Z,1.67
2018-06-13T09:34:07.316Z,1.50
2018-06-13T09:36:36.571Z,1.50
2018-06-13T09:39:07.144Z,1.87
2018-06-13T09:41:41.781Z,2.03
2018-06-13T09:44:11.184Z,1.53
2018-06-13T09:46:40.546Z,1.90
2018-06-13T09:49:09.856Z,1.80
2018-06-13T09:51:39.199Z,2.00
2018-06-13T09:54:08.378Z,1.40
2018-06-13T09:56:37.649Z,2.07
2018-06-13T09:59:13.352Z,1.90
2018-06-13T10:01:48.166Z,2.30
2018-06-13T10:04:17.410Z,2.20
2018-06-13T10:06:46.656Z,1.80
2018-06-13T10:09:15.889Z,2.17
2018-06-13T10:11:45.255Z,2.03
2018-06-13T10:14:14.505Z,1.90
2018-06-13T10:16:43.779Z,2.20
2018-06-13T10:19:13.016Z,2.27
2018-06-13T10:21:42.229Z,1.70
2018-06-13T10:24:11.533Z,2.03
2018-06-13T10:26:40.775Z,1.90
2018-06-13T10:29:10.111Z,2.07
2018-06-13T10:31:39.379Z,2.37
2018-06-13T10:34:08.605Z,1.77
2018-06-13T10:36:37.875Z,2.00
2018-06-13T10:39:08.124Z,1.80
2018-06-13T10:41:37.421Z,1.90
2018-06-13T10:44:06.652Z,1.73
2018-06-13T10:46:36.032Z,1.43
2018-06-13T10:49:05.292Z,1.40
2018-06-13T10:51:34.495Z,1.80
2018-06-13T10:54:05.021Z,1.80
2018-06-13T10:56:34.267Z,2.10
2018-06-13T10:59:03.612Z,2.60
2018-06-13T11:01:32.839Z,2.50
2018-06-13T11:04:02.129Z,2.47
2018-06-13T11:06:31.365Z,2.60
2018-06-13T11:09:00.600Z,2.10
2018-06-13T11:11:29.852Z,2.73
2018-06-13T11:13:59.152Z,2.13
2018-06-13T11:16:29.276Z,2.27
2018-06-13T11:18:58.501Z,2.00
2018-06-13T11:21:27.735Z,2.10
2018-06-13T11:23:56.969Z,1.77
2018-06-13T11:26:26.255Z,2.80
2018-06-13T11:28:55.459Z,2.53
2018-06-13T11:31:24.749Z,2.43
2018-06-13T11:33:53.960Z,3.17
2018-06-13T11:36:23.292Z,1.90
2018-06-13T11:38:52.617Z,2.37
2018-06-13T11:41:21.858Z,1.87
2018-06-13T11:43:51.210Z,2.17
2018-06-13T11:46:20.662Z,1.63
2018-06-13T11:48:49.910Z,2.30
2018-06-13T11:51:19.198Z,2.83
2018-06-13T11:53:48.555Z,2.67
2018-06-13T11:56:17.851Z,1.90
2018-06-13T11:58:47.131Z,2.37
2018-06-13T12:01:16.514Z,2.10
2018-06-13T12:03:45.794Z,2.80
2018-06-13T12:06:15.109Z,2.30
2018-06-13T12:08:44.320Z,2.27
2018-06-13T12:11:13.792Z,2.63
2018-06-13T12:13:43.115Z,2.10
2018-06-13T12:16:12.403Z,2.03
2018-06-13T12:18:41.674Z,2.67
2018-06-13T12:21:10.961Z,2.77
2018-06-13T12:23:40.260Z,2.60
2018-06-13T12:26:09.570Z,2.60
2018-06-13T12:28:39.299Z,2.10
2018-06-13T12:31:08.570Z,2.53
2018-06-13T12:33:37.901Z,2.37
2018-06-13T12:36:07.199Z,2.20
2018-06-13T12:38:36.528Z,2.33
2018-06-13T12:41:05.823Z,2.30
2018-06-13T12:43:35.037Z,2.80
2018-06-13T12:46:04.320Z,2.00
2018-06-13T12:48:33.724Z,2.73
2018-06-13T12:51:02.929Z,2.40
2018-06-13T12:53:32.256Z,2.40
2018-06-13T12:56:01.579Z,2.50
2018-06-13T12:58:30.725Z,2.77
2018-06-13T13:00:59.978Z,2.60
2018-06-13T13:03:29.252Z,2.27
2018-06-13T13:05:58.539Z,2.63
2018-06-13T13:08:27.928Z,2.20
2018-06-13T13:10:57.269Z,2.70
2018-06-13T13:13:26.537Z,2.50
2018-06-13T13:15:55.714Z,2.43
2018-06-13T13:18:24.994Z,2.23
2018-06-13T13:20:54.284Z,3.50
2018-06-13T13:23:23.555Z,2.23
2018-06-13T13:25:52.901Z,3.10
2018-06-13T13:28:22.229Z,1.90
2018-06-13T13:30:51.526Z,2.50
2018-06-13T13:33:20.849Z,2.20
2018-06-13T13:35:50.105Z,2.47
2018-06-13T13:38:20.762Z,2.93
2018-06-13T13:40:50.241Z,2.90
2018-06-13T13:43:19.511Z,2.70
2018-06-13T13:45:48.941Z,2.30
2018-06-13T13:48:18.095Z,2.17
2018-06-13T13:50:47.400Z,2.23
2018-06-13T13:53:16.695Z,3.00
2018-06-13T13:55:45.887Z,2.47
2018-06-13T13:58:15.134Z,2.43
2018-06-13T14:00:44.349Z,2.13
2018-06-13T14:03:13.659Z,2.10
2018-06-13T14:05:44.561Z,2.13
2018-06-13T14:08:13.790Z,2.20
2018-06-13T14:10:43.019Z,2.63
2018-06-13T14:13:12.252Z,2.63
2018-06-13T14:15:41.594Z,2.00
2018-06-13T14:18:10.920Z,2.27
2018-06-13T14:20:40.166Z,2.40
2018-06-13T14:23:10.137Z,2.20
2018-06-13T14:25:39.358Z,2.20
2018-06-13T14:28:08.593Z,2.20
2018-06-13T14:30:37.862Z,1.70
2018-06-13T14:33:07.176Z,2.10
2018-06-13T14:35:36.407Z,2.30
2018-06-13T14:38:05.693Z,3.00
2018-06-13T14:40:34.964Z,3.70
2018-06-13T14:43:04.387Z,3.03
2018-06-13T14:45:33.659Z,3.77
2018-06-13T14:48:02.945Z,2.10
2018-06-13T14:50:32.228Z,2.70
2018-06-13T14:53:01.464Z,3.63
2018-06-13T14:55:35.100Z,3.30
2018-06-13T14:58:04.424Z,2.90
2018-06-13T15:00:33.680Z,1.80
2018-06-13T15:03:03.052Z,2.70
2018-06-13T15:05:32.308Z,2.43
2018-06-13T15:08:01.592Z,2.40
2018-06-13T15:10:30.923Z,2.30
2018-06-13T15:13:00.256Z,2.30
2018-06-13T15:15:29.529Z,2.43
2018-06-13T15:17:58.798Z,3.83
2018-06-13T15:20:28.066Z,3.40
2018-06-13T15:22:58.167Z,2.63
2018-06-13T15:25:27.461Z,2.40
2018-06-13T15:27:56.764Z,2.47
2018-06-13T15:30:26.079Z,2.73
2018-06-13T15:32:55.380Z,2.60
2018-06-13T15:35:24.727Z,2.77
2018-06-13T15:37:54.024Z,2.43
2018-06-13T15:40:23.288Z,1.67
2018-06-13T15:42:52.541Z,2.57
2018-06-13T15:45:21.880Z,2.03
2018-06-13T15:47:51.128Z,2.83
2018-06-13T15:50:20.493Z,2.70
2018-06-13T15:52:50.452Z,2.27
2018-06-13T15:55:19.888Z,3.00
2018-06-13T15:57:49.133Z,2.90
2018-06-13T16:00:18.408Z,2.10
2018-06-13T16:02:47.757Z,2.70
2018-06-13T16:05:17.122Z,3.30
2018-06-13T16:07:46.463Z,4.43
2018-06-13T16:10:15.769Z,2.00
2018-06-13T16:12:45.077Z,2.13
2018-06-13T16:15:14.354Z,2.03
2018-06-13T16:17:43.925Z,2.13
2018-06-13T16:20:13.229Z,1.57
2018-06-13T16:22:42.694Z,2.10
2018-06-13T16:25:11.928Z,2.33
2018-06-13T16:27:41.144Z,2.67
2018-06-13T16:30:10.516Z,2.43
2018-06-13T16:32:39.780Z,1.83
2018-06-13T16:35:09.051Z,1.97
2018-06-13T16:37:38.341Z,2.20
2018-06-13T16:40:07.636Z,1.80
2018-06-13T16:42:36.888Z,2.40
2018-06-13T16:45:06.102Z,2.00
2018-06-13T16:47:35.359Z,1.80
2018-06-13T16:50:14.460Z,1.97
2018-06-13T16:52:54.867Z,2.37
2018-06-13T16:55:24.951Z,2.90
2018-06-13T16:57:54.200Z,2.20
2018-06-13T17:00:23.497Z,2.70
2018-06-13T17:02:52.874Z,2.20
2018-06-13T17:05:22.161Z,2.90
2018-06-13T17:07:51.453Z,2.30
2018-06-13T17:10:20.732Z,3.10
2018-06-13T17:12:49.998Z,3.00
2018-06-13T17:15:19.243Z,2.73
2018-06-13T17:17:48.467Z,2.87
2018-06-13T17:20:17.760Z,2.43
2018-06-13T17:22:47.131Z,2.90
2018-06-13T17:25:16.422Z,2.47
2018-06-13T17:27:45.743Z,2.67
2018-06-13T17:30:15.141Z,2.60
2018-06-13T17:32:44.448Z,3.20
2018-06-13T17:35:13.701Z,3.03
2018-06-13T17:37:43.009Z,2.87
2018-06-13T17:40:12.264Z,3.17
2018-06-13T17:42:41.569Z,2.67
2018-06-13T17:45:10.899Z,2.53
2018-06-13T17:47:40.155Z,2.50
2018-06-13T17:50:09.640Z,2.70
2018-06-13T17:52:38.878Z,2.60
2018-06-13T17:55:08.133Z,2.60
2018-06-13T17:57:37.496Z,2.60
2018-06-13T18:00:06.831Z,2.40
2018-06-13T18:02:36.255Z,2.23
2018-06-13T18:05:05.663Z,2.37
2018-06-13T18:07:34.972Z,2.50
2018-06-13T18:10:04.321Z,2.63
2018-06-13T18:12:33.604Z,2.77
2018-06-13T18:15:02.878Z,2.77
2018-06-13T18:17:32.307Z,2.87
2018-06-13T18:20:01.601Z,2.00
2018-06-13T18:22:30.898Z,2.30
2018-06-13T18:25:00.176Z,2.40
2018-06-13T18:27:29.481Z,2.20
2018-06-13T18:29:58.656Z,2.53
2018-06-13T18:32:27.836Z,2.40
2018-06-13T18:34:57.076Z,2.27
2018-06-13T18:37:26.964Z,2.40
2018-06-13T18:39:56.272Z,5.23
2018-06-13T18:42:25.535Z,3.20
2018-06-13T18:44:54.750Z,3.80
2018-06-13T18:47:24.029Z,2.60
2018-06-13T18:49:53.448Z,2.70
2018-06-13T18:52:22.695Z,2.20
2018-06-13T18:54:51.994Z,2.50
2018-06-13T18:57:21.259Z,2.20
2018-06-13T18:59:50.535Z,2.10
2018-06-13T19:02:19.761Z,2.17
2018-06-13T19:04:49.271Z,2.33
2018-06-13T19:07:18.558Z,2.50
2018-06-13T19:09:47.880Z,6.53
2018-06-13T19:12:17.171Z,4.40
2018-06-13T19:14:46.523Z,3.13
2018-06-13T19:17:15.839Z,3.37
2018-06-13T19:19:45.084Z,2.03
2018-06-13T19:22:14.343Z,2.53
2018-06-13T19:24:43.632Z,2.03
2018-06-13T19:27:12.964Z,2.03
2018-06-13T19:29:42.263Z,1.83
2018-06-13T19:32:11.539Z,2.27
2018-06-13T19:34:40.945Z,2.50
2018-06-13T19:37:10.263Z,1.67
2018-06-13T19:39:39.568Z,2.00
2018-06-13T19:42:08.838Z,1.20
2018-06-13T19:44:38.101Z,2.87
2018-06-13T19:47:12.535Z,1.80
2018-06-13T19:49:41.860Z,1.80
2018-06-13T19:52:11.325Z,1.77
2018-06-13T19:54:45.904Z,2.23
2018-06-13T19:57:15.133Z,2.20
2018-06-13T19:59:44.349Z,2.77
2018-06-13T20:02:13.540Z,2.40
2018-06-13T20:04:48.024Z,2.77
2018-06-13T20:07:17.303Z,2.00
2018-06-13T20:09:46.631Z,2.10
2018-06-13T20:12:32.319Z,2.80
2018-06-13T20:15:06.820Z,2.37
2018-06-13T20:17:41.511Z,1.83
2018-06-13T20:20:10.964Z,1.90
2018-06-13T20:22:40.240Z,2.60
2018-06-13T20:25:14.868Z,2.40
2018-06-13T20:27:49.246Z,1.93
2018-06-13T20:30:23.601Z,2.70
2018-06-13T20:32:53.489Z,3.10
2018-06-13T20:35:22.882Z,2.50
2018-06-13T20:37:52.307Z,2.70
2018-06-13T20:40:21.673Z,2.40
2018-06-13T20:42:51.055Z,2.43
2018-06-13T20:45:20.304Z,2.40
2018-06-13T20:47:49.600Z,2.33
2018-06-13T20:50:18.911Z,2.37
2018-06-13T20:52:48.455Z,2.60
2018-06-13T20:55:17.762Z,2.00
2018-06-13T20:57:47.123Z,2.23
2018-06-13T21:00:16.356Z,2.17
2018-06-13T21:02:45.735Z,2.60
2018-06-13T21:05:15.041Z,2.23
2018-06-13T21:07:44.498Z,2.40
2018-06-13T21:10:13.904Z,2.50
2018-06-13T21:12:43.165Z,3.00
2018-06-13T21:15:12.386Z,2.70
2018-06-13T21:17:41.809Z,2.73
2018-06-13T21:20:11.238Z,2.47
2018-06-13T21:22:40.481Z,2.70
2018-06-13T21:25:09.785Z,2.50
2018-06-13T21:27:39.105Z,2.87
2018-06-13T21:30:08.527Z,2.87
2018-06-13T21:32:37.931Z,3.03
2018-06-13T21:35:07.446Z,2.40
2018-06-13T21:37:36.678Z,2.60
2018-06-13T21:40:06.219Z,3.03
2018-06-13T21:42:35.439Z,3.13
2018-06-13T21:45:05.030Z,3.30
2018-06-13T21:47:35.419Z,3.47
2018-06-13T21:50:04.795Z,3.97
2018-06-13T21:52:34.659Z,3.50
2018-06-13T21:55:04.013Z,3.30
2018-06-13T21:57:33.241Z,3.27
2018-06-13T22:00:02.487Z,3.10
2018-06-13T22:02:31.812Z,2.90
2018-06-13T22:05:01.068Z,2.60
2018-06-13T22:07:30.377Z,2.80
2018-06-13T22:09:59.774Z,4.53
2018-06-13T22:12:29.037Z,3.53
2018-06-13T22:14:58.217Z,2.23
2018-06-13T22:17:27.531Z,2.40
2018-06-13T22:19:56.804Z,3.30
2018-06-13T22:22:26.137Z,2.83
2018-06-13T22:24:55.377Z,2.97
2018-06-13T22:27:24.601Z,2.60
2018-06-13T22:29:53.786Z,2.70
2018-06-13T22:32:23.018Z,2.90
2018-06-13T22:34:52.231Z,3.30
2018-06-13T22:37:21.559Z,3.63
2018-06-13T22:39:50.756Z,3.00
2018-06-13T22:42:20.062Z,3.00
2018-06-13T22:44:49.288Z,3.80
2018-06-13T22:47:18.507Z,3.50
2018-06-13T22:49:47.836Z,3.43
2018-06-13T22:52:17.007Z,4.40
2018-06-13T22:54:46.209Z,3.57
2018-06-13T22:57:15.418Z,4.10
2018-06-13T22:59:44.634Z,4.13
2018-06-13T23:02:13.860Z,3.40
2018-06-13T23:04:43.125Z,4.20
2018-06-13T23:07:12.305Z,5.03
2018-06-13T23:09:41.500Z,6.07
2018-06-13T23:12:10.715Z,6.27
2018-06-13T23:14:39.949Z,4.77
2018-06-13T23:17:09.696Z,3.43
2018-06-13T23:19:39.022Z,4.20
2018-06-13T23:22:08.178Z,5.00
2018-06-13T23:24:37.386Z,4.53
2018-06-13T23:27:06.600Z,4.90
2018-06-13T23:29:35.816Z,4.30
2018-06-13T23:32:05.029Z,4.80
2018-06-13T23:34:34.248Z,4.90
2018-06-13T23:37:03.517Z,5.40
2018-06-13T23:39:32.770Z,4.57
2018-06-13T23:42:02.095Z,4.73
2018-06-13T23:44:31.330Z,4.37
2018-06-13T23:47:00.573Z,3.90
2018-06-13T23:49:29.791Z,4.73
2018-06-13T23:51:59.047Z,5.00
2018-06-13T23:54:28.372Z,4.77
2018-06-13T23:56:57.572Z,5.17
2018-06-13T23:59:26.789Z,4.87
